Castafiore — FGG7039 — position and weather

sailwx.info

Track history (hours):
 
Tides and Currents Weather Stations Pressure Air Temp Water Temp Dewpoint Dewpoint Depression Visibility Wind Speed Wind Dir Waves Ship Positions

Castafiore

Last reported at 2017-Aug-14 08:33 UTC. Time now 2017-Aug-16 21:45 UTC.
Position N 38°14' E 013°20'.

Length 17 m.

Type: Sailing vessel. MMSI: 227041910.

Date/timePositionNaut miles runAvg speedWind from/ knotsBaromVisibWave heightAir tempDewpointWater temp
2017-Aug-14 08:33N 38°14' E 013°20'0 8.6
2017-Aug-14 08:30N 38°14' E 013°20'  
2017-Aug-09 14:06N 38°07' E 013°35'79 2.9
2017-Aug-08 10:22N 38°14' E 015°15'1 2.4
2017-Aug-08 09:55N 38°13' E 015°15'0 0.0
2017-Aug-08 09:25N 38°13' E 015°15'0 0.0
2017-Aug-08 08:55N 38°13' E 015°15'0 0.0
2017-Aug-08 08:25N 38°13' E 015°15'0 0.0
2017-Aug-08 07:55N 38°13' E 015°15'0 0.0
2017-Aug-08 07:25N 38°13' E 015°15'0 0.0
2017-Aug-08 06:55N 38°13' E 015°15'0 0.0
2017-Aug-08 06:25N 38°13' E 015°15'0 0.0
2017-Aug-08 05:55N 38°13' E 015°15'0 0.0
2017-Aug-08 05:25N 38°13' E 015°15'0 0.0
2017-Aug-08 04:55N 38°13' E 015°15'0 0.0
2017-Aug-08 04:25N 38°13' E 015°15'0 0.0
2017-Aug-08 03:55N 38°13' E 015°15'0 0.0
2017-Aug-08 03:25N 38°13' E 015°15'0 0.0
2017-Aug-08 02:55N 38°13' E 015°15'0 0.0
2017-Aug-08 02:25N 38°13' E 015°15'0 0.0
2017-Aug-08 01:55N 38°13' E 015°15'0 0.0
2017-Aug-08 01:25N 38°13' E 015°15'0 0.0
2017-Aug-08 00:55N 38°13' E 015°15'0 0.0
2017-Aug-08 00:25N 38°13' E 015°15'0 0.0
2017-Aug-07 23:55N 38°13' E 015°15'0 0.0
2017-Aug-07 23:25N 38°13' E 015°15'0 0.0
2017-Aug-07 22:55N 38°13' E 015°15'0 0.0
2017-Aug-07 22:19N 38°13' E 015°15'0 0.0
2017-Aug-07 21:55N 38°13' E 015°15'0 0.0
2017-Aug-07 21:25N 38°13' E 015°15'0 0.0
2017-Aug-07 20:55N 38°13' E 015°15'0 0.0
2017-Aug-07 20:25N 38°13' E 015°15'0 0.0
2017-Aug-07 19:55N 38°13' E 015°15'0 0.0
2017-Aug-07 19:25N 38°13' E 015°15'0 0.0
2017-Aug-07 18:55N 38°13' E 015°15'0 0.0
2017-Aug-07 18:25N 38°13' E 015°15'0 0.0
2017-Aug-07 17:55N 38°13' E 015°15'0 0.0
2017-Aug-07 17:25N 38°13' E 015°15'0 0.0
2017-Aug-07 16:55N 38°13' E 015°15'0 0.0
2017-Aug-07 16:25N 38°13' E 015°15'0 0.0
2017-Aug-07 15:55N 38°13' E 015°15'0 0.0
2017-Aug-07 15:25N 38°13' E 015°15'0 0.0
2017-Aug-07 15:00N 38°13' E 015°15'19 5.3
2017-Aug-07 11:28N 38°10' E 015°38'  
Track history (hours):
 
Tides and Currents Weather Stations Pressure Air Temp Water Temp Dewpoint Dewpoint Depression Visibility Wind Speed Wind Dir Waves Ship Positions

Castafiore

Last reported at 2017-Aug-14 08:33 UTC. Time now 2017-Aug-16 21:45 UTC.
Position N 38°14' E 013°20'.

Length 17 m.

Type: Sailing vessel. MMSI: 227041910.

Date/timePositionNaut miles runAvg speedWind from/ knotsBaromVisibWave heightAir tempDewpointWater temp
2017-Aug-14 08:33N 38°14' E 013°20'0 8.6
2017-Aug-14 08:30N 38°14' E 013°20'  
2017-Aug-09 14:06N 38°07' E 013°35'79 2.9
2017-Aug-08 10:22N 38°14' E 015°15'1 2.4
2017-Aug-08 09:55N 38°13' E 015°15'0 0.0
2017-Aug-08 09:25N 38°13' E 015°15'0 0.0
2017-Aug-08 08:55N 38°13' E 015°15'0 0.0
2017-Aug-08 08:25N 38°13' E 015°15'0 0.0
2017-Aug-08 07:55N 38°13' E 015°15'0 0.0
2017-Aug-08 07:25N 38°13' E 015°15'0 0.0
2017-Aug-08 06:55N 38°13' E 015°15'0 0.0
2017-Aug-08 06:25N 38°13' E 015°15'0 0.0
2017-Aug-08 05:55N 38°13' E 015°15'0 0.0
2017-Aug-08 05:25N 38°13' E 015°15'0 0.0
2017-Aug-08 04:55N 38°13' E 015°15'0 0.0
2017-Aug-08 04:25N 38°13' E 015°15'0 0.0
2017-Aug-08 03:55N 38°13' E 015°15'0 0.0
2017-Aug-08 03:25N 38°13' E 015°15'0 0.0
2017-Aug-08 02:55N 38°13' E 015°15'0 0.0
2017-Aug-08 02:25N 38°13' E 015°15'0 0.0
2017-Aug-08 01:55N 38°13' E 015°15'0 0.0
2017-Aug-08 01:25N 38°13' E 015°15'0 0.0
2017-Aug-08 00:55N 38°13' E 015°15'0 0.0
2017-Aug-08 00:25N 38°13' E 015°15'0 0.0
2017-Aug-07 23:55N 38°13' E 015°15'0 0.0
2017-Aug-07 23:25N 38°13' E 015°15'0 0.0
2017-Aug-07 22:55N 38°13' E 015°15'0 0.0
2017-Aug-07 22:19N 38°13' E 015°15'0 0.0
2017-Aug-07 21:55N 38°13' E 015°15'0 0.0
2017-Aug-07 21:25N 38°13' E 015°15'0 0.0
2017-Aug-07 20:55N 38°13' E 015°15'0 0.0
2017-Aug-07 20:25N 38°13' E 015°15'0 0.0
2017-Aug-07 19:55N 38°13' E 015°15'0 0.0
2017-Aug-07 19:25N 38°13' E 015°15'0 0.0
2017-Aug-07 18:55N 38°13' E 015°15'0 0.0
2017-Aug-07 18:25N 38°13' E 015°15'0 0.0
2017-Aug-07 17:55N 38°13' E 015°15'0 0.0
2017-Aug-07 17:25N 38°13' E 015°15'0 0.0
2017-Aug-07 16:55N 38°13' E 015°15'0 0.0
2017-Aug-07 16:25N 38°13' E 015°15'0 0.0
2017-Aug-07 15:55N 38°13' E 015°15'0 0.0
2017-Aug-07 15:25N 38°13' E 015°15'0 0.0
2017-Aug-07 15:00N 38°13' E 015°15'19 5.3
2017-Aug-07 11:28N 38°10' E 015°38'  

Dump ship's entire track history